Time;durP1;ratioP1;P1;durP2;ratioP2;P2;SDS_P1;SDS_P2;PMS_P1;PMS_P2;Temp;Humidity;BMP_temperature;BMP_pressure;BME280_temperature;BME280_humidity;BME280_pressure;Samples;Min_cycle;Max_cycle;Signal;HPM_P1;HPM_P2
2024/03/23 00:01:07;;;;;;;50.80;25.30;;;;;;;-2.63;100.00;100386.20;109422;1251;59336;-54
2024/03/23 00:03:34;;;;;;;50.60;27.00;;;;;;;-2.61;100.00;100382.87;109490;1251;58974;-54
2024/03/23 00:06:04;;;;;;;55.90;27.00;;;;;;;-2.62;100.00;100381.37;109379;1251;73885;-54
2024/03/23 00:08:31;;;;;;;54.90;27.60;;;;;;;-2.63;100.00;100382.09;109440;1251;65808;-58
2024/03/23 00:10:59;;;;;;;58.00;27.60;;;;;;;-2.65;100.00;100384.09;109480;1251;72734;-53
2024/03/23 00:13:26;;;;;;;47.60;24.20;;;;;;;-2.67;100.00;100385.09;109425;1251;60910;-54
2024/03/23 00:15:53;;;;;;;47.50;26.00;;;;;;;-2.69;100.00;100382.49;109506;1251;58866;-54
2024/03/23 00:18:23;;;;;;;43.40;24.50;;;;;;;-2.73;100.00;100381.67;109447;1251;74849;-54
2024/03/23 00:20:51;;;;;;;44.70;24.90;;;;;;;-2.76;100.00;100379.52;109434;1251;65852;-55
2024/03/23 00:23:19;;;;;;;47.80;25.10;;;;;;;-2.81;100.00;100376.21;109487;1251;71568;-54
2024/03/23 00:25:46;;;;;;;55.10;24.40;;;;;;;-2.84;100.00;100371.49;109473;1251;59344;-54
2024/03/23 00:28:14;;;;;;;47.70;25.50;;;;;;;-2.89;100.00;100371.29;109412;1251;59480;-54
2024/03/23 00:30:41;;;;;;;43.60;24.70;;;;;;;-2.94;100.00;100368.54;109411;1251;74686;-56
2024/03/23 00:33:09;;;;;;;45.90;22.60;;;;;;;-2.97;100.00;100367.71;109444;1251;67153;-54
2024/03/23 00:35:36;;;;;;;46.50;22.20;;;;;;;-2.99;100.00;100368.17;109471;1251;74833;-55
2024/03/23 00:38:03;;;;;;;42.80;22.90;;;;;;;-3.03;100.00;100367.58;109469;1251;59074;-54
2024/03/23 00:40:32;;;;;;;42.90;22.60;;;;;;;-3.06;100.00;100374.05;109473;1251;60090;-54
2024/03/23 00:42:59;;;;;;;49.50;22.50;;;;;;;-3.10;100.00;100372.79;109408;1251;74705;-59
2024/03/23 00:45:27;;;;;;;47.20;24.10;;;;;;;-3.13;100.00;100374.33;109491;1250;65870;-55
2024/03/23 00:47:54;;;;;;;40.90;22.40;;;;;;;-3.17;100.00;100379.14;109435;1251;72771;-54
2024/03/23 00:50:21;;;;;;;40.20;21.30;;;;;;;-3.22;100.00;100379.58;109379;1252;59374;-55
2024/03/23 00:52:49;;;;;;;44.90;23.60;;;;;;;-3.28;100.00;100377.05;109426;1250;59014;-58
2024/03/23 00:55:16;;;;;;;44.30;22.00;;;;;;;-3.32;100.00;100375.40;109341;1251;74717;-55
2024/03/23 00:57:43;;;;;;;38.30;21.90;;;;;;;-3.34;100.00;100373.98;109449;1251;67189;-55
2024/03/23 01:00:12;;;;;;;42.70;22.60;;;;;;;-3.35;100.00;100368.83;109421;1251;72757;-54
2024/03/23 01:02:39;;;;;;;46.90;22.90;;;;;;;-3.35;100.00;100366.80;109428;1251;58947;-58
2024/03/23 01:05:07;;;;;;;43.40;23.70;;;;;;;-3.35;100.00;100368.48;109392;1251;58918;-54
2024/03/23 01:07:34;;;;;;;40.80;23.60;;;;;;;-3.33;100.00;100368.34;109465;1250;74693;-55
2024/03/23 01:10:02;;;;;;;43.20;23.10;;;;;;;-3.31;100.00;100367.38;109443;1250;66892;-53
2024/03/23 01:12:29;;;;;;;35.80;20.90;;;;;;;-3.30;100.00;100364.08;109438;1250;72735;-54
2024/03/23 01:14:56;;;;;;;45.40;23.80;;;;;;;-3.30;100.00;100363.23;109443;1250;59476;-59
2024/03/23 01:17:24;;;;;;;48.20;24.40;;;;;;;-3.31;100.00;100362.95;109418;1251;60042;-54
2024/03/23 01:19:52;;;;;;;43.20;22.50;;;;;;;-3.34;100.00;100368.21;109450;1251;74904;-53
2024/03/23 01:22:19;;;;;;;41.50;22.90;;;;;;;-3.37;100.00;100370.29;109423;1251;67150;-55
2024/03/23 01:24:47;;;;;;;46.10;24.00;;;;;;;-3.41;100.00;100369.66;109464;1250;72865;-54
2024/03/23 01:27:14;;;;;;;42.60;23.00;;;;;;;-3.42;100.00;100371.56;109383;1252;61008;-57
2024/03/23 01:29:42;;;;;;;42.50;22.80;;;;;;;-3.42;100.00;100366.33;109408;1251;60673;-54
2024/03/23 01:32:09;;;;;;;39.70;20.10;;;;;;;-3.43;100.00;100363.68;109424;1251;74698;-54
2024/03/23 01:34:37;;;;;;;40.00;22.90;;;;;;;-3.43;100.00;100364.19;109450;1250;65830;-54
2024/03/23 01:37:04;;;;;;;45.10;24.50;;;;;;;-3.43;100.00;100365.21;109415;1251;73149;-54
2024/03/23 01:39:31;;;;;;;44.40;24.10;;;;;;;-3.42;100.00;100363.95;109401;1250;59009;-55
2024/03/23 01:41:59;;;;;;;54.80;27.00;;;;;;;-3.40;100.00;100367.27;109427;1250;58918;-55
2024/03/23 01:44:26;;;;;;;43.00;23.30;;;;;;;-3.39;100.00;100363.96;109436;1251;76784;-54
2024/03/23 01:46:54;;;;;;;41.90;23.90;;;;;;;-3.38;100.00;100365.58;109412;1250;67635;-55
2024/03/23 01:49:21;;;;;;;47.50;24.50;;;;;;;-3.36;100.00;100363.08;109343;1251;72731;-54
2024/03/23 01:51:49;;;;;;;43.90;23.90;;;;;;;-3.33;100.00;100360.36;109394;1250;58874;-58
2024/03/23 01:54:17;;;;;;;52.20;25.20;;;;;;;-3.31;100.00;100361.08;109452;1251;58878;-54
2024/03/23 01:56:44;;;;;;;59.60;27.50;;;;;;;-3.29;100.00;100362.85;109432;1251;74767;-54
2024/03/23 01:59:11;;;;;;;56.60;27.40;;;;;;;-3.29;100.00;100367.91;109428;1250;65865;-53
2024/03/23 02:01:39;;;;;;;52.10;25.90;;;;;;;-3.26;100.00;100367.94;109389;1250;72082;-54
2024/03/23 02:04:06;;;;;;;48.60;26.30;;;;;;;-3.23;100.00;100367.23;109391;1250;59663;-54
2024/03/23 02:06:34;;;;;;;46.90;26.00;;;;;;;-3.19;100.00;100370.23;109483;1249;60122;-55
2024/03/23 02:09:01;;;;;;;47.00;25.40;;;;;;;-3.13;100.00;100370.88;109472;1250;74736;-54
2024/03/23 02:11:28;;;;;;;50.90;25.80;;;;;;;-3.06;100.00;100368.92;109485;1250;66987;-54
2024/03/23 02:13:56;;;;;;;52.80;27.20;;;;;;;-2.99;100.00;100367.96;109431;1250;72697;-54
2024/03/23 02:16:24;;;;;;;52.50;26.60;;;;;;;-2.90;100.00;100366.41;109431;1252;60927;-54
2024/03/23 02:18:51;;;;;;;42.60;25.20;;;;;;;-2.82;100.00;100367.27;109497;1250;60174;-54
2024/03/23 02:21:18;;;;;;;48.50;27.20;;;;;;;-2.73;100.00;100376.94;109462;1250;74745;-54
2024/03/23 02:23:46;;;;;;;46.00;26.40;;;;;;;-2.64;100.00;100382.17;109520;1250;66033;-55
2024/03/23 02:26:15;;;;;;;52.00;26.30;;;;;;;-2.55;100.00;100383.48;109423;1252;73146;-59
2024/03/23 02:28:42;;;;;;;54.40;27.20;;;;;;;-2.47;100.00;100382.45;109466;1250;60940;-53
2024/03/23 02:31:10;;;;;;;53.10;28.20;;;;;;;-2.35;100.00;100383.91;109487;1249;59220;-54
2024/03/23 02:33:38;;;;;;;54.60;26.60;;;;;;;-2.24;100.00;100386.77;109458;1250;73426;-54
2024/03/23 02:36:05;;;;;;;47.10;25.40;;;;;;;-2.17;100.00;100376.45;109485;1250;67131;-59
2024/03/23 02:38:33;;;;;;;42.80;24.50;;;;;;;-2.14;100.00;100369.69;109449;1249;72755;-55
2024/03/23 02:41:04;;;;;;;47.90;25.80;;;;;;;-2.12;100.00;100366.30;109458;1250;59473;-54
2024/03/23 02:43:31;;;;;;;43.90;22.60;;;;;;;-2.11;100.00;100366.05;109452;1249;58984;-54
2024/03/23 02:45:59;;;;;;;51.00;27.00;;;;;;;-2.10;100.00;100362.77;109484;1249;74719;-54
2024/03/23 02:48:26;;;;;;;62.30;29.90;;;;;;;-2.10;100.00;100364.65;109435;1250;67205;-52
2024/03/23 02:50:54;;;;;;;58.70;29.20;;;;;;;-2.09;100.00;100370.53;109453;1250;72798;-54
2024/03/23 02:53:21;;;;;;;51.10;26.90;;;;;;;-2.06;100.00;100373.05;109493;1250;59035;-52
2024/03/23 02:55:49;;;;;;;58.60;28.60;;;;;;;-2.02;100.00;100374.80;109440;1250;59904;-53
2024/03/23 02:58:16;;;;;;;54.50;26.10;;;;;;;-1.95;100.00;100372.52;109445;1250;73437;-59
2024/03/23 03:00:44;;;;;;;54.70;27.90;;;;;;;-1.89;100.00;100374.30;109486;1249;66961;-55
2024/03/23 03:03:11;;;;;;;54.00;28.60;;;;;;;-1.83;100.00;100371.51;109480;1249;71456;-55
2024/03/23 03:05:38;;;;;;;54.10;26.40;;;;;;;-1.80;100.00;100373.70;109445;1250;60998;-54
2024/03/23 03:08:06;;;;;;;58.20;26.70;;;;;;;-1.79;100.00;100370.77;109484;1249;60236;-54
2024/03/23 03:10:36;;;;;;;60.00;29.90;;;;;;;-1.79;100.00;100372.09;109397;1250;74744;-54
2024/03/23 03:13:03;;;;;;;63.00;29.10;;;;;;;-1.77;100.00;100377.80;109483;1250;66966;-54
2024/03/23 03:15:31;;;;;;;63.90;30.90;;;;;;;-1.72;100.00;100373.35;109485;1250;72544;-54
2024/03/23 03:17:58;;;;;;;63.50;30.50;;;;;;;-1.67;100.00;100380.39;109474;1250;59408;-55
2024/03/23 03:20:25;;;;;;;61.10;32.00;;;;;;;-1.63;100.00;100385.05;109465;1253;60184;-55
2024/03/23 03:22:53;;;;;;;57.60;28.90;;;;;;;-1.59;100.00;100386.32;109475;1249;75101;-55
2024/03/23 03:25:21;;;;;;;53.00;28.00;;;;;;;-1.54;100.00;100385.98;109509;1250;65680;-55
2024/03/23 03:27:48;;;;;;;56.30;28.80;;;;;;;-1.48;100.00;100389.48;109438;1249;71775;-56
2024/03/23 03:30:16;;;;;;;52.80;27.70;;;;;;;-1.44;100.00;100380.55;109449;1249;59489;-55
2024/03/23 03:32:43;;;;;;;57.10;29.70;;;;;;;-1.41;100.00;100380.84;109486;1249;58986;-55
2024/03/23 03:35:11;;;;;;;59.40;28.30;;;;;;;-1.38;100.00;100382.17;109452;1250;74747;-55
2024/03/23 03:37:38;;;;;;;52.80;27.40;;;;;;;-1.35;100.00;100380.79;109515;1250;65639;-55
2024/03/23 03:40:08;;;;;;;52.10;27.80;;;;;;;-1.32;100.00;100382.80;109428;1250;71423;-55
2024/03/23 03:42:36;;;;;;;46.50;25.40;;;;;;;-1.27;100.00;100386.19;109448;1250;58998;-59
2024/03/23 03:45:04;;;;;;;53.00;28.20;;;;;;;-1.21;100.00;100388.86;109448;1250;59066;-55
2024/03/23 03:47:31;;;;;;;52.50;27.70;;;;;;;-1.17;100.00;100382.30;109440;1251;73763;-54
2024/03/23 03:49:59;;;;;;;49.70;28.40;;;;;;;-1.14;100.00;100381.04;109505;1250;67074;-55
2024/03/23 03:52:26;;;;;;;51.00;25.60;;;;;;;-1.10;100.00;100383.72;109427;1250;72706;-55
2024/03/23 03:55:02;;;;;;;48.50;26.20;;;;;;;-1.08;100.00;100380.63;109451;1249;59615;-55
2024/03/23 03:57:29;;;;;;;47.40;25.30;;;;;;;-1.04;100.00;100380.00;109522;1249;60647;-54
2024/03/23 03:59:57;;;;;;;43.90;24.50;;;;;;;-0.98;100.00;100383.89;109549;1250;74759;-54
2024/03/23 04:02:24;;;;;;;46.50;25.50;;;;;;;-0.91;100.00;100383.27;109497;1249;67354;-55
2024/03/23 04:04:51;;;;;;;42.10;23.80;;;;;;;-0.85;100.00;100379.20;109446;1250;71911;-55
2024/03/23 04:07:20;;;;;;;45.50;25.00;;;;;;;-0.79;100.00;100381.36;109407;1253;59194;-52
2024/03/23 04:09:47;;;;;;;48.70;24.40;;;;;;;-0.75;100.00;100385.35;109497;1250;59043;-54
2024/03/23 04:12:15;;;;;;;47.10;26.00;;;;;;;-0.71;100.00;100391.05;109485;1250;74740;-52
2024/03/23 04:14:42;;;;;;;48.20;25.90;;;;;;;-0.64;100.00;100393.00;109461;1250;65673;-56
2024/03/23 04:17:10;;;;;;;47.60;27.20;;;;;;;-0.58;100.00;100386.94;109479;1250;72711;-54
2024/03/23 04:19:37;;;;;;;49.50;25.90;;;;;;;-0.57;100.00;100380.84;109473;1250;59022;-55
2024/03/23 04:22:05;;;;;;;46.50;26.80;;;;;;;-0.55;100.00;100381.38;109465;1250;58995;-55
2024/03/23 04:24:32;;;;;;;47.10;26.50;;;;;;;-0.50;100.00;100383.08;109527;1250;73404;-56
2024/03/23 04:26:59;;;;;;;47.20;26.10;;;;;;;-0.45;100.00;100386.17;109438;1250;67439;-53
2024/03/23 04:29:27;;;;;;;48.90;26.50;;;;;;;-0.38;100.00;100389.91;109477;1250;72346;-52
2024/03/23 04:31:55;;;;;;;45.70;25.70;;;;;;;-0.29;100.00;100390.33;109426;1250;59447;-53
2024/03/23 04:34:23;;;;;;;47.30;26.30;;;;;;;-0.20;100.00;100384.89;109440;1250;58988;-52
2024/03/23 04:36:50;;;;;;;45.50;26.40;;;;;;;-0.10;100.00;100381.73;109455;1250;73417;-55
2024/03/23 04:39:19;;;;;;;44.20;26.20;;;;;;;0.01;100.00;100382.65;109463;1250;67691;-53
2024/03/23 04:41:46;;;;;;;43.60;24.60;;;;;;;0.11;100.00;100380.42;109408;1250;72739;-53
2024/03/23 04:44:14;;;;;;;38.80;23.60;;;;;;;0.18;100.00;100383.79;109472;1250;58898;-55
2024/03/23 04:46:41;;;;;;;37.30;21.70;;;;;;;0.27;100.00;100383.12;109490;1250;60090;-55
2024/03/23 04:49:09;;;;;;;41.10;23.20;;;;;;;0.35;100.00;100379.00;109455;1250;73430;-55
2024/03/23 04:51:37;;;;;;;38.20;24.30;;;;;;;0.42;100.00;100376.86;109443;1250;64733;-54
2024/03/23 04:54:05;;;;;;;36.80;22.60;;;;;;;0.48;100.00;100376.41;109483;1250;71235;-56
2024/03/23 04:56:33;;;;;;;39.90;23.90;;;;;;;0.55;100.00;100382.79;109451;1250;59050;-53
2024/03/23 04:59:01;;;;;;;39.00;22.60;;;;;;;0.62;100.00;100381.01;109522;1250;59381;-58
2024/03/23 05:01:29;;;;;;;39.00;23.00;;;;;;;0.70;100.00;100378.16;109487;1253;74717;-53
2024/03/23 05:03:57;;;;;;;42.90;23.60;;;;;;;0.78;100.00;100381.18;109529;1250;67563;-53
2024/03/23 05:06:25;;;;;;;39.20;23.50;;;;;;;0.87;100.00;100381.39;109440;1250;71923;-55
2024/03/23 05:08:52;;;;;;;38.70;22.10;;;;;;;0.96;100.00;100379.29;109453;1250;59464;-60
2024/03/23 05:11:20;;;;;;;39.10;22.80;;;;;;;1.06;100.00;100379.23;109527;1250;60505;-55
2024/03/23 05:13:48;;;;;;;34.30;21.70;;;;;;;1.14;100.00;100380.42;109483;1250;73446;-52
2024/03/23 05:16:15;;;;;;;34.00;21.40;;;;;;;1.25;100.00;100383.55;109533;1249;67093;-53
2024/03/23 05:18:43;;;;;;;36.60;21.40;;;;;;;1.35;100.00;100385.67;109458;1250;73161;-53
2024/03/23 05:21:10;;;;;;;32.40;20.00;;;;;;;1.43;100.00;100383.64;109484;1250;59470;-58
2024/03/23 05:23:38;;;;;;;38.90;21.40;;;;;;;1.51;100.00;100381.02;109502;1250;59123;-53
2024/03/23 05:26:05;;;;;;;32.00;19.90;;;;;;;1.56;100.00;100377.88;109513;1249;74681;-53
2024/03/23 05:28:32;;;;;;;36.20;21.90;;;;;;;1.57;100.00;100379.11;109478;1250;65074;-53
2024/03/23 05:31:00;;;;;;;31.60;18.40;;;;;;;1.61;100.00;100377.09;109478;1250;71445;-58
2024/03/23 05:33:28;;;;;;;34.10;21.00;;;;;;;1.65;100.00;100376.11;109504;1250;61304;-53
2024/03/23 05:36:00;;;;;;;32.90;19.40;;;;;;;1.68;100.00;100374.49;109475;1249;59227;-55
2024/03/23 05:38:28;;;;;;;31.80;19.40;;;;;;;1.72;100.00;100374.23;109542;1250;73403;-54
2024/03/23 05:40:55;;;;;;;28.60;18.10;;;;;;;1.80;100.00;100372.83;109551;1249;65890;-53
2024/03/23 05:43:23;;;;;;;30.80;20.20;;;;;;;1.89;100.00;100369.56;109370;1250;72428;-55
2024/03/23 05:45:57;;;;;;;32.00;19.60;;;;;;;1.98;100.00;100367.63;109449;1251;58931;-54
2024/03/23 05:48:26;;;;;;;33.70;20.10;;;;;;;2.07;100.00;100365.30;109455;1249;58923;-53
2024/03/23 05:50:53;;;;;;;33.20;17.00;;;;;;;2.20;100.00;100365.29;109448;1250;73351;-55
2024/03/23 05:53:21;;;;;;;29.20;18.40;;;;;;;2.29;100.00;100368.48;109411;1250;67670;-58
2024/03/23 05:55:49;;;;;;;28.10;18.30;;;;;;;2.36;100.00;100367.92;109432;1251;72721;-54
2024/03/23 05:58:17;;;;;;;26.60;17.10;;;;;;;2.42;100.00;100372.59;109446;1251;59332;-53
2024/03/23 06:00:44;;;;;;;29.50;19.00;;;;;;;2.47;100.00;100371.45;109457;1250;60132;-53
2024/03/23 06:03:12;;;;;;;29.80;18.90;;;;;;;2.48;100.00;100370.02;109485;1250;72481;-54
2024/03/23 06:05:39;;;;;;;30.30;19.10;;;;;;;2.46;100.00;100371.22;109501;1250;66208;-56
2024/03/23 06:08:09;;;;;;;27.90;18.30;;;;;;;2.48;100.00;100369.88;109502;1253;71577;-54
2024/03/23 06:10:36;;;;;;;31.30;19.50;;;;;;;2.52;100.00;100372.10;109468;1253;59398;-55
2024/03/23 06:13:04;;;;;;;32.40;19.70;;;;;;;2.59;100.00;100369.29;109454;1250;59182;-55
2024/03/23 06:15:31;;;;;;;33.00;19.50;;;;;;;2.67;100.00;100368.20;109448;1250;73812;-55
2024/03/23 06:17:59;;;;;;;29.70;18.70;;;;;;;2.76;100.00;100362.74;109470;1251;67263;-53
2024/03/23 06:20:26;;;;;;;29.90;19.30;;;;;;;2.82;100.00;100363.92;109511;1249;71499;-53
2024/03/23 06:22:54;;;;;;;33.30;20.10;;;;;;;2.82;100.00;100361.14;109461;1250;59536;-53
2024/03/23 06:25:21;;;;;;;32.60;20.80;;;;;;;2.83;100.00;100355.91;109487;1250;59000;-53
2024/03/23 06:27:48;;;;;;;33.80;20.50;;;;;;;2.77;100.00;100352.80;109534;1250;74728;-54
2024/03/23 06:30:16;;;;;;;30.20;19.10;;;;;;;2.72;100.00;100347.23;109487;1253;67001;-54
2024/03/23 06:32:43;;;;;;;32.60;19.60;;;;;;;2.71;100.00;100344.73;109502;1250;70118;-53
2024/03/23 06:35:11;;;;;;;29.80;19.50;;;;;;;2.72;100.00;100339.69;109533;1250;59307;-53
2024/03/23 06:37:40;;;;;;;28.20;18.70;;;;;;;2.73;100.00;100340.34;109516;1250;59147;-56
2024/03/23 06:40:09;;;;;;;28.80;18.50;;;;;;;2.76;100.00;100337.14;109501;1250;73908;-54
2024/03/23 06:42:37;;;;;;;23.50;15.50;;;;;;;2.80;100.00;100334.76;109534;1250;66593;-53
2024/03/23 06:45:05;;;;;;;25.10;15.80;;;;;;;2.72;100.00;100336.09;109546;1250;72778;-53
2024/03/23 06:47:33;;;;;;;27.70;16.10;;;;;;;2.67;100.00;100334.48;109502;1250;60941;-53
2024/03/23 06:50:02;;;;;;;29.50;18.50;;;;;;;2.66;100.00;100332.10;109524;1250;59397;-54
2024/03/23 06:52:30;;;;;;;31.50;19.80;;;;;;;2.68;100.00;100326.27;109479;1250;72906;-53
2024/03/23 06:54:57;;;;;;;33.30;18.90;;;;;;;2.77;100.00;100326.09;109543;1250;65840;-54
2024/03/23 06:57:25;;;;;;;30.10;19.10;;;;;;;2.86;100.00;100327.66;109559;1250;71814;-54
2024/03/23 06:59:52;;;;;;;31.20;18.70;;;;;;;2.94;100.00;100327.33;109553;1249;59349;-54
2024/03/23 07:02:19;;;;;;;28.30;18.40;;;;;;;2.96;100.00;100327.86;109511;1250;62155;-57
2024/03/23 07:04:47;;;;;;;29.00;17.30;;;;;;;2.98;100.00;100325.43;109504;1250;72778;-54
2024/03/23 07:07:14;;;;;;;29.10;17.20;;;;;;;3.02;100.00;100319.40;109579;1250;69351;-55
2024/03/23 07:09:42;;;;;;;28.80;18.20;;;;;;;3.07;100.00;100316.20;109465;1250;71546;-55
2024/03/23 07:12:09;;;;;;;32.00;19.60;;;;;;;3.12;100.00;100312.67;109450;1250;59514;-59
2024/03/23 07:14:37;;;;;;;31.20;18.80;;;;;;;3.11;100.00;100306.95;109531;1250;58947;-54
2024/03/23 07:17:04;;;;;;;29.30;18.80;;;;;;;3.12;100.00;100313.02;109532;1250;74713;-55
2024/03/23 07:19:32;;;;;;;28.20;18.40;;;;;;;3.20;100.00;100310.52;109530;1250;65961;-55
2024/03/23 07:21:59;;;;;;;26.40;16.60;;;;;;;3.35;100.00;100312.98;109488;1250;71111;-55
2024/03/23 07:24:27;;;;;;;24.80;14.90;;;;;;;3.49;100.00;100309.66;109368;1250;59650;-55
2024/03/23 07:26:55;;;;;;;27.30;16.90;;;;;;;3.66;100.00;100306.71;109494;1250;60351;-55
2024/03/23 07:29:23;;;;;;;25.20;15.20;;;;;;;3.85;100.00;100304.06;109478;1251;74687;-56
2024/03/23 07:31:50;;;;;;;25.10;16.60;;;;;;;4.04;100.00;100302.26;109522;1251;66942;-55
2024/03/23 07:34:18;;;;;;;25.60;16.60;;;;;;;4.28;100.00;100298.26;109468;1253;72767;-55
2024/03/23 07:36:45;;;;;;;25.80;16.30;;;;;;;4.50;100.00;100298.90;109451;1250;58937;-55
2024/03/23 07:39:13;;;;;;;25.70;15.90;;;;;;;4.69;100.00;100291.53;109500;1253;60179;-55
2024/03/23 07:41:40;;;;;;;22.00;14.80;;;;;;;4.89;100.00;100290.27;109540;1251;74634;-56
2024/03/23 07:44:08;;;;;;;23.90;14.90;;;;;;;5.10;100.00;100289.84;109180;1253;66899;-57
2024/03/23 07:46:35;;;;;;;23.10;15.00;;;;;;;5.30;100.00;100286.65;109454;1251;71752;-55
2024/03/23 07:49:04;;;;;;;24.40;15.30;;;;;;;5.49;100.00;100279.54;109455;1251;59004;-54
2024/03/23 07:51:32;;;;;;;21.70;14.80;;;;;;;5.65;100.00;100274.13;109503;1251;60117;-55
2024/03/23 07:54:00;;;;;;;25.80;16.30;;;;;;;5.91;100.00;100272.96;109513;1251;74688;-55
2024/03/23 07:56:27;;;;;;;21.70;15.30;;;;;;;6.23;100.00;100264.77;109497;1251;65858;-54
2024/03/23 07:58:55;;;;;;;23.00;16.70;;;;;;;6.56;100.00;100263.66;109471;1252;72730;-55
2024/03/23 08:01:23;;;;;;;24.20;16.60;;;;;;;6.99;100.00;100263.41;109441;1250;59351;-55
2024/03/23 08:03:51;;;;;;;24.20;18.30;;;;;;;7.15;100.00;100267.62;109466;1251;60066;-55
2024/03/23 08:06:28;;;;;;;26.50;18.20;;;;;;;7.34;100.00;100266.34;109457;1249;73662;-59
2024/03/23 08:09:00;;;;;;;23.70;17.70;;;;;;;8.11;100.00;100258.39;109440;1250;66063;-55
2024/03/23 08:11:28;;;;;;;23.50;17.60;;;;;;;9.11;100.00;100258.60;109453;1250;72897;-55
2024/03/23 08:13:56;;;;;;;26.00;20.00;;;;;;;9.84;100.00;100252.19;109457;1251;60410;-55
2024/03/23 08:16:24;;;;;;;26.30;19.50;;;;;;;9.94;100.00;100246.65;109387;1250;61054;-54
2024/03/23 08:18:51;;;;;;;26.70;19.40;;;;;;;9.81;95.02;100244.53;109436;1250;74741;-54
2024/03/23 08:21:19;;;;;;;29.90;21.70;;;;;;;9.60;91.27;100240.88;109470;1250;69313;-56
2024/03/23 08:23:46;;;;;;;26.60;20.60;;;;;;;9.41;87.43;100232.77;109427;1250;75261;-54
2024/03/23 08:26:15;;;;;;;25.80;20.40;;;;;;;9.17;86.82;100234.81;109455;1251;58979;-54
2024/03/23 08:28:43;;;;;;;27.50;21.40;;;;;;;9.12;87.65;100230.77;109456;1251;58890;-56
2024/03/23 08:31:11;;;;;;;33.70;22.00;;;;;;;9.22;86.87;100232.08;109485;1250;74847;-54
2024/03/23 08:33:39;;;;;;;26.90;20.10;;;;;;;9.32;84.55;100228.36;109479;1250;65854;-55
2024/03/23 08:36:07;;;;;;;27.50;20.70;;;;;;;9.43;83.73;100223.26;109274;1251;72463;-54
2024/03/23 08:38:35;;;;;;;28.80;21.00;;;;;;;9.67;81.90;100219.40;109419;1250;59034;-54
2024/03/23 08:41:09;;;;;;;26.10;19.70;;;;;;;9.92;79.30;100214.73;109476;1250;61425;-54
2024/03/23 08:43:41;;;;;;;27.60;20.10;;;;;;;10.27;76.85;100207.88;109452;1250;74659;-54
2024/03/23 08:46:09;;;;;;;24.70;20.40;;;;;;;10.66;73.96;100197.81;109468;1252;66873;-54
2024/03/23 08:48:38;;;;;;;28.00;19.00;;;;;;;11.05;69.51;100198.43;109389;1253;73229;-54
2024/03/23 08:51:07;;;;;;;25.20;18.40;;;;;;;11.26;64.11;100192.27;109448;1251;59635;-57
2024/03/23 08:53:35;;;;;;;23.30;18.30;;;;;;;11.37;61.31;100192.30;109509;1250;60115;-55
2024/03/23 08:56:03;;;;;;;22.50;16.60;;;;;;;11.38;58.93;100187.98;109506;1250;74653;-55
2024/03/23 08:58:31;;;;;;;23.00;17.40;;;;;;;11.32;57.04;100190.63;109456;1251;67454;-59
2024/03/23 09:01:14;;;;;;;21.70;17.10;;;;;;;11.17;56.55;100183.04;109467;1253;73764;-54
2024/03/23 09:03:42;;;;;;;21.60;15.60;;;;;;;11.13;57.13;100182.93;109488;1251;62727;-55
2024/03/23 09:06:11;;;;;;;20.60;16.40;;;;;;;11.47;58.98;100184.91;109496;1250;61062;-56
2024/03/23 09:08:40;;;;;;;24.80;17.60;;;;;;;11.83;55.82;100187.94;109455;1251;76825;-54
2024/03/23 09:11:09;;;;;;;24.60;17.40;;;;;;;12.01;55.34;100183.16;109414;1250;66156;-55
2024/03/23 09:13:37;;;;;;;20.30;15.00;;;;;;;12.40;54.00;100182.72;109259;1251;74221;-55
2024/03/23 09:16:05;;;;;;;22.20;15.10;;;;;;;12.71;52.00;100178.20;109400;1251;59192;-59
2024/03/23 09:18:35;;;;;;;20.50;15.10;;;;;;;12.96;50.13;100177.55;109377;1256;59119;-54
2024/03/23 09:21:04;;;;;;;21.60;15.60;;;;;;;13.27;49.51;100171.57;109449;1251;76730;-54
2024/03/23 09:23:31;;;;;;;23.60;16.00;;;;;;;13.30;46.91;100171.37;109479;1251;68701;-54
2024/03/23 09:26:03;;;;;;;22.50;15.00;;;;;;;12.70;46.20;100170.63;109450;1253;73537;-54
2024/03/23 09:28:30;;;;;;;23.10;15.50;;;;;;;12.19;47.06;100172.08;109440;1251;61449;-54
2024/03/23 09:31:05;;;;;;;24.00;16.60;;;;;;;12.06;48.39;100174.70;109451;1252;62617;-55
2024/03/23 09:33:33;;;;;;;25.10;14.80;;;;;;;12.26;49.26;100172.29;109461;1250;76967;-55
2024/03/23 09:36:04;;;;;;;25.80;16.60;;;;;;;12.54;48.24;100171.70;109379;1250;69453;-56
2024/03/23 09:38:32;;;;;;;24.60;16.80;;;;;;;12.66;47.54;100168.98;109430;1252;74347;-55
2024/03/23 09:41:00;;;;;;;22.20;16.10;;;;;;;12.84;47.65;100166.35;109235;1252;59343;-55
2024/03/23 09:43:27;;;;;;;21.80;15.80;;;;;;;13.20;47.10;100156.95;109407;1253;60125;-55
2024/03/23 09:45:55;;;;;;;24.00;16.40;;;;;;;13.51;45.84;100155.80;109294;1252;76129;-55
2024/03/23 09:48:22;;;;;;;25.70;17.10;;;;;;;13.76;45.64;100146.55;109406;1251;67843;-55
2024/03/23 09:50:50;;;;;;;22.70;16.50;;;;;;;14.19;45.24;100143.68;109517;1255;75256;-56
2024/03/23 09:53:17;;;;;;;23.30;15.80;;;;;;;14.63;43.71;100136.64;109312;1251;62677;-55
2024/03/23 09:55:45;;;;;;;21.90;16.20;;;;;;;14.91;42.38;100131.38;109422;1251;62572;-55
2024/03/23 09:58:13;;;;;;;24.40;17.40;;;;;;;14.93;41.42;100131.62;109266;1251;75843;-59
2024/03/23 10:00:41;;;;;;;21.10;15.80;;;;;;;14.75;40.75;100126.34;109439;1251;69417;-55
2024/03/23 10:03:11;;;;;;;23.40;16.90;;;;;;;14.65;41.40;100117.81;109421;1251;72942;-54
2024/03/23 10:05:38;;;;;;;34.30;19.40;;;;;;;14.90;41.52;100114.08;109474;1251;61561;-56
2024/03/23 10:08:14;;;;;;;22.40;16.60;;;;;;;15.11;40.60;100111.24;109436;1251;62665;-58
2024/03/23 10:10:41;;;;;;;19.90;14.80;;;;;;;15.21;40.09;100106.73;109435;1251;74059;-55
2024/03/23 10:13:09;;;;;;;21.70;16.60;;;;;;;15.29;39.47;100104.06;109410;1251;68397;-55
2024/03/23 10:15:37;;;;;;;23.80;17.00;;;;;;;15.34;39.46;100100.51;109274;1251;75273;-55
2024/03/23 10:18:20;;;;;;;24.30;17.80;;;;;;;15.46;39.00;100098.36;109417;1251;61842;-55
2024/03/23 10:21:05;;;;;;;26.20;18.40;;;;;;;15.52;38.82;100097.17;109417;1251;62132;-55
2024/03/23 10:23:35;;;;;;;26.90;18.90;;;;;;;15.49;38.83;100097.15;109415;1251;77641;-55
2024/03/23 10:26:18;;;;;;;22.80;16.80;;;;;;;15.36;38.62;100096.52;109384;1256;67961;-56
2024/03/23 10:29:04;;;;;;;23.90;17.30;;;;;;;15.25;38.86;100093.23;109397;1253;73088;-55
2024/03/23 10:31:32;;;;;;;23.80;16.50;;;;;;;15.38;38.88;100089.64;109420;1251;62604;-59
2024/03/23 10:34:00;;;;;;;24.00;16.40;;;;;;;15.57;38.64;100088.54;109419;1254;61211;-55
2024/03/23 10:36:28;;;;;;;25.50;18.40;;;;;;;15.69;37.93;100082.44;109486;1251;76086;-55
2024/03/23 10:38:58;;;;;;;22.80;16.80;;;;;;;15.78;37.66;100079.55;109457;1251;69582;-55
2024/03/23 10:41:31;;;;;;;23.40;16.70;;;;;;;15.83;37.05;100076.98;109433;1253;75285;-56
2024/03/23 10:43:59;;;;;;;20.90;15.90;;;;;;;15.68;37.05;100076.09;109421;1251;61631;-55
2024/03/23 10:46:27;;;;;;;23.10;15.70;;;;;;;15.36;36.72;100074.02;109478;1251;61065;-56
2024/03/23 10:48:55;;;;;;;23.70;16.00;;;;;;;14.95;37.70;100075.23;109498;1251;76968;-55
2024/03/23 10:51:22;;;;;;;21.00;15.60;;;;;;;14.86;37.94;100070.64;109428;1256;68799;-55
2024/03/23 10:53:50;;;;;;;21.60;15.60;;;;;;;14.70;38.06;100071.00;109431;1252;74996;-55
2024/03/23 10:56:17;;;;;;;25.00;18.50;;;;;;;14.55;38.41;100075.97;109316;1253;59548;-55
2024/03/23 10:58:47;;;;;;;21.30;15.60;;;;;;;14.40;38.36;100074.88;109346;1251;62554;-55
2024/03/23 11:01:15;;;;;;;21.90;15.40;;;;;;;14.08;38.53;100069.17;109303;1251;77263;-55
2024/03/23 11:03:46;;;;;;;22.90;16.30;;;;;;;13.95;39.57;100060.77;109406;1256;67730;-55